Time;durP1;ratioP1;P1;durP2;ratioP2;P2;SDS_P1;SDS_P2;PMS_P1;PMS_P2;Temp;Humidity;BMP_temperature;BMP_pressure;BME280_temperature;BME280_humidity;BME280_pressure;Samples;Min_cycle;Max_cycle;Signal;HPM_P1;HPM_P2
2022/12/28 00:01:37;;;;;;;9.63;5.25;;;;;;;6.55;100.00;101430.56;2615554;36;20055;-60
2022/12/28 00:04:07;;;;;;;12.70;4.95;;;;;;;6.37;100.00;101425.41;2613184;36;20034;-60
2022/12/28 00:06:36;;;;;;;7.85;4.65;;;;;;;6.60;100.00;101418.63;2615342;36;20072;-60
2022/12/28 00:09:04;;;;;;;10.77;5.43;;;;;;;6.54;100.00;101410.16;2614631;36;20035;-59
2022/12/28 00:11:33;;;;;;;11.93;4.97;;;;;;;6.56;100.00;101393.03;2614964;36;20451;-59
2022/12/28 00:14:04;;;;;;;9.73;4.75;;;;;;;6.55;100.00;101385.97;2616370;31;20306;-59
2022/12/28 00:16:40;;;;;;;11.50;5.75;;;;;;;6.51;100.00;101395.16;2615600;31;20043;-61
2022/12/28 00:19:13;;;;;;;11.25;5.20;;;;;;;6.61;100.00;101390.94;2613124;36;20037;-61
2022/12/28 00:21:42;;;;;;;9.27;5.95;;;;;;;6.66;100.00;101382.63;2615087;36;20039;-61
2022/12/28 00:24:17;;;;;;;7.80;3.93;;;;;;;6.56;100.00;101368.09;2613962;36;20038;-61
2022/12/28 00:26:45;;;;;;;12.57;5.05;;;;;;;6.72;100.00;101352.78;2615233;36;20307;-61
2022/12/28 00:29:16;;;;;;;13.70;6.60;;;;;;;6.77;100.00;101337.31;2615066;36;20041;-61
2022/12/28 00:31:46;;;;;;;12.60;5.75;;;;;;;6.63;100.00;101329.31;2615886;36;20041;-60
2022/12/28 00:34:14;;;;;;;;;;;;;;;6.83;100.00;101333.34;2615552;31;20527;-60
2022/12/28 00:36:42;;;;;;;12.68;5.35;;;;;;;6.75;100.00;101317.81;2615468;36;19962;-61
2022/12/28 00:39:11;;;;;;;10.25;5.32;;;;;;;6.65;100.00;101311.34;2615171;36;20034;-61
2022/12/28 00:41:40;;;;;;;11.52;5.38;;;;;;;6.79;100.00;101313.13;2615681;36;20550;-60
2022/12/28 00:44:08;;;;;;;12.18;5.68;;;;;;;6.61;100.00;101305.34;2615351;36;20034;-61
2022/12/28 00:46:39;;;;;;;10.00;5.22;;;;;;;6.57;100.00;101306.50;2615046;36;20030;-60
2022/12/28 00:49:08;;;;;;;10.95;5.28;;;;;;;6.60;100.00;101298.28;2613625;36;20030;-60
2022/12/28 00:51:36;;;;;;;9.88;5.18;;;;;;;6.64;100.00;101291.75;2612128;36;20034;-61
2022/12/28 00:54:05;;;;;;;9.15;5.18;;;;;;;6.68;100.00;101288.88;2615990;36;20022;-62
2022/12/28 00:56:33;;;;;;;8.07;5.05;;;;;;;6.59;100.00;101276.97;2616189;36;20548;-60
2022/12/28 00:59:02;;;;;;;12.32;5.00;;;;;;;6.71;100.00;101268.13;2615042;36;20045;-61
2022/12/28 01:01:30;;;;;;;12.82;5.55;;;;;;;6.76;100.00;101265.19;2613113;36;20038;-60
2022/12/28 01:04:02;;;;;;;9.73;5.15;;;;;;;6.78;100.00;101263.25;2609391;36;20039;-60
2022/12/28 01:06:31;;;;;;;12.02;5.28;;;;;;;6.73;100.00;101254.66;2614773;36;20034;-60
2022/12/28 01:08:59;;;;;;;7.32;4.40;;;;;;;6.80;100.00;101247.94;2615816;36;20031;-59
2022/12/28 01:11:30;;;;;;;7.18;5.07;;;;;;;6.84;100.00;101247.63;2615538;36;20539;-60
2022/12/28 01:14:01;;;;;;;12.85;5.63;;;;;;;6.82;100.00;101233.50;2616166;36;20023;-60
2022/12/28 01:16:32;;;;;;;9.95;5.32;;;;;;;6.86;100.00;101239.53;2616196;31;20054;-61
2022/12/28 01:19:04;;;;;;;14.07;5.28;;;;;;;6.82;100.00;101217.47;2615167;36;20416;-60
2022/12/28 01:21:34;;;;;;;11.95;4.80;;;;;;;7.05;100.00;101243.63;2615177;36;20042;-62
2022/12/28 01:24:06;;;;;;;8.75;4.68;;;;;;;6.93;100.00;101214.03;2614592;36;20031;-62
2022/12/28 01:26:35;;;;;;;11.50;4.57;;;;;;;6.97;100.00;101220.91;2615711;31;20030;-60
2022/12/28 01:29:04;;;;;;;9.18;5.65;;;;;;;7.17;100.00;101226.75;2617068;36;20023;-62
2022/12/28 01:31:35;;;;;;;9.40;4.65;;;;;;;7.13;100.00;101219.88;2617451;36;20030;-61
2022/12/28 01:34:11;;;;;;;10.02;4.95;;;;;;;7.04;100.00;101199.06;2615637;36;20031;-61
2022/12/28 01:36:43;;;;;;;8.20;5.22;;;;;;;7.04;100.00;101210.66;2616222;36;20041;-61
2022/12/28 01:39:15;;;;;;;11.02;5.45;;;;;;;7.10;100.00;101217.41;2614671;36;20038;-60
2022/12/28 01:41:51;;;;;;;9.70;5.22;;;;;;;7.16;100.00;101208.97;2615966;47;20036;-59
2022/12/28 01:44:45;;;;;;;12.48;6.03;;;;;;;7.21;100.00;101206.81;2617999;36;20027;-60
2022/12/28 01:47:25;;;;;;;8.38;4.80;;;;;;;7.08;100.00;101190.75;2617548;36;20023;-61
2022/12/28 01:50:02;;;;;;;12.32;5.50;;;;;;;7.20;100.00;101191.72;2615554;36;20630;-59
2022/12/28 01:52:35;;;;;;;8.52;5.57;;;;;;;7.13;100.00;101193.13;2616362;31;20030;-62
2022/12/28 01:55:08;;;;;;;7.78;5.50;;;;;;;7.18;100.00;101188.28;2616585;36;20480;-59
2022/12/28 01:57:43;;;;;;;6.55;4.50;;;;;;;7.14;100.00;101173.41;2616435;36;20681;-60
2022/12/28 02:00:18;;;;;;;9.80;5.30;;;;;;;7.16;100.00;101177.69;2615601;36;20030;-62
2022/12/28 02:02:52;;;;;;;12.25;5.70;;;;;;;7.24;100.00;101163.75;2615998;36;20061;-61
2022/12/28 02:05:26;;;;;;;14.60;6.65;;;;;;;7.17;100.00;101159.81;2615968;36;20038;-60
2022/12/28 02:08:00;;;;;;;13.68;6.40;;;;;;;7.12;100.00;101153.91;2615526;36;20035;-61
2022/12/28 02:10:30;;;;;;;10.95;5.78;;;;;;;7.12;100.00;101140.53;2615204;36;20022;-61
2022/12/28 02:12:59;;;;;;;13.25;6.10;;;;;;;7.25;100.00;101154.78;2616184;31;20038;-60
2022/12/28 02:15:27;;;;;;;12.13;5.43;;;;;;;7.23;100.00;101151.38;2616061;36;20026;-61
2022/12/28 02:17:56;;;;;;;9.38;5.10;;;;;;;7.23;100.00;101135.31;2614145;36;20030;-60
2022/12/28 02:20:34;;;;;;;11.60;6.78;;;;;;;7.21;100.00;101133.69;2615248;36;20046;-60
2022/12/28 02:23:28;;;;;;;9.70;5.07;;;;;;;7.24;100.00;101123.59;2616134;36;20030;-60
2022/12/28 02:26:30;;;;;;;9.35;5.80;;;;;;;7.25;100.00;101128.00;2613865;36;20431;-60
2022/12/28 02:29:37;;;;;;;11.23;6.22;;;;;;;7.30;100.00;101117.84;2615536;31;20042;-60
2022/12/28 02:32:22;;;;;;;11.02;6.15;;;;;;;7.19;100.00;101107.03;2615987;31;20031;-60
2022/12/28 02:35:14;;;;;;;8.60;5.90;;;;;;;7.18;100.00;101106.19;2615813;36;20037;-62
2022/12/28 02:37:48;;;;;;;9.55;5.82;;;;;;;7.25;100.00;101092.34;2616510;36;20150;-60
2022/12/28 02:40:22;;;;;;;12.68;6.78;;;;;;;7.19;100.00;101085.59;2614544;36;20038;-59
2022/12/28 02:42:52;;;;;;;16.92;6.57;;;;;;;7.21;100.00;101089.03;2613678;36;20038;-61
2022/12/28 02:51:09;;;;;;;10.75;6.05;;;;;;;7.27;100.00;101093.09;2613359;36;20519;-62
2022/12/28 02:53:54;;;;;;;15.50;7.68;;;;;;;7.31;100.00;101090.06;2616283;31;20065;-61
2022/12/28 02:56:32;;;;;;;10.40;6.53;;;;;;;7.44;100.00;101098.09;2615940;31;20041;-61
2022/12/28 02:59:34;;;;;;;17.10;7.10;;;;;;;7.35;100.00;101091.56;2616257;36;20034;-61
2022/12/28 03:02:40;;;;;;;11.65;6.45;;;;;;;7.42;100.00;101080.41;2615402;36;20045;-62
2022/12/28 03:08:13;;;;;;;11.48;6.97;;;;;;;7.49;100.00;101079.00;2614862;36;20038;-60
2022/12/28 03:08:18;;;;;;;10.75;6.65;;;;;;;7.56;100.00;101088.31;2616079;31;20504;-60
2022/12/28 03:10:53;;;;;;;14.60;7.20;;;;;;;7.58;100.00;101075.66;2615845;36;20069;-61
2022/12/28 03:16:11;;;;;;;11.45;7.22;;;;;;;7.54;100.00;101067.00;2615953;36;20430;-60
2022/12/28 03:32:28;;;;;;;14.80;8.05;;;;;;;7.69;100.00;101048.97;2614867;36;20061;-62
2022/12/28 03:34:56;;;;;;;12.68;7.38;;;;;;;7.75;100.00;101058.38;2615756;36;20606;-62
2022/12/28 03:37:34;;;;;;;12.35;8.10;;;;;;;7.70;100.00;101045.31;2616080;36;20512;-61
2022/12/28 03:40:08;;;;;;;12.05;8.07;;;;;;;7.78;100.00;101054.63;2614477;36;20035;-62
2022/12/28 03:45:31;;;;;;;12.35;8.05;;;;;;;7.82;100.00;101040.03;2616082;31;20943;-63
2022/12/28 03:48:03;;;;;;;14.63;8.50;;;;;;;7.85;100.00;101039.81;2615924;36;20030;-61
2022/12/28 03:50:32;;;;;;;14.85;8.45;;;;;;;7.95;100.00;101045.31;2616406;31;20038;-62
2022/12/28 03:53:03;;;;;;;21.42;9.32;;;;;;;7.94;100.00;101044.47;2616753;36;20035;-62
2022/12/28 03:55:32;;;;;;;16.48;9.95;;;;;;;7.91;100.00;101041.16;2615619;36;20029;-60
2022/12/28 03:58:00;;;;;;;12.77;8.85;;;;;;;8.09;100.00;101030.88;2616460;36;20034;-62
2022/12/28 04:00:29;;;;;;;16.05;9.55;;;;;;;7.94;100.00;101022.19;2616203;36;20031;-61
2022/12/28 04:02:57;;;;;;;15.57;9.95;;;;;;;8.11;100.00;101018.22;2616168;36;20030;-62
2022/12/28 04:05:25;;;;;;;17.27;9.80;;;;;;;8.04;100.00;101018.69;2616627;36;20126;-61
2022/12/28 04:07:54;;;;;;;13.45;9.00;;;;;;;8.01;100.00;101010.88;2616291;36;20041;-61
2022/12/28 04:10:25;;;;;;;17.27;10.05;;;;;;;7.98;100.00;101013.78;2615560;36;20034;-61
2022/12/28 04:12:56;;;;;;;16.27;9.48;;;;;;;8.10;100.00;101005.75;2615713;36;20035;-62
2022/12/28 04:15:24;;;;;;;15.38;9.80;;;;;;;8.02;100.00;101004.56;2616258;31;20569;-61
2022/12/28 04:17:53;;;;;;;16.97;11.10;;;;;;;8.14;100.00;100999.22;2616158;36;20034;-60
2022/12/28 04:20:21;;;;;;;16.55;10.50;;;;;;;8.14;100.00;100989.34;2633802;36;20836;-61
2022/12/28 04:22:49;;;;;;;16.85;10.90;;;;;;;8.28;100.00;100984.75;2615055;36;20046;-61
2022/12/28 04:25:18;;;;;;;14.68;10.38;;;;;;;8.19;100.00;100989.84;2615533;36;20038;-61
2022/12/28 04:27:49;;;;;;;17.38;11.15;;;;;;;8.28;100.00;100977.56;2616071;36;20034;-62
2022/12/28 04:30:17;;;;;;;20.05;9.70;;;;;;;8.33;100.00;100975.41;2615581;36;20031;-61
2022/12/28 04:32:45;;;;;;;22.42;11.07;;;;;;;8.18;100.00;100969.34;2616154;31;20030;-61
2022/12/28 04:35:14;;;;;;;16.85;10.48;;;;;;;8.24;100.00;100968.91;2616973;31;20416;-61
2022/12/28 04:37:42;;;;;;;22.42;12.38;;;;;;;8.21;100.00;100961.06;2615247;36;20039;-61
2022/12/28 04:40:12;;;;;;;19.42;12.35;;;;;;;8.34;100.00;100962.81;2614795;36;20034;-60
2022/12/28 04:42:40;;;;;;;16.17;10.45;;;;;;;8.44;100.00;100960.28;2615965;36;20046;-61
2022/12/28 04:45:12;;;;;;;20.20;10.70;;;;;;;8.36;100.00;100967.09;2615618;36;20099;-62
2022/12/28 04:47:40;;;;;;;18.30;10.98;;;;;;;8.53;100.00;100959.59;2615782;36;20408;-61
2022/12/28 04:50:09;;;;;;;20.17;11.90;;;;;;;8.52;100.00;100945.31;2615914;36;20034;-62
2022/12/28 04:52:37;;;;;;;18.83;11.32;;;;;;;8.54;100.00;100961.31;2616424;36;20041;-61
2022/12/28 04:55:06;;;;;;;18.55;11.52;;;;;;;8.59;100.00;100945.69;2615911;36;20061;-60
2022/12/28 04:57:35;;;;;;;17.00;11.07;;;;;;;8.53;100.00;100940.81;2616544;36;20558;-61
2022/12/28 05:00:03;;;;;;;17.55;11.20;;;;;;;8.62;100.00;100945.44;2615712;36;20042;-60
2022/12/28 05:02:34;;;;;;;18.30;11.35;;;;;;;8.58;100.00;100952.91;2616138;36;20042;-61
2022/12/28 05:05:02;;;;;;;24.10;11.68;;;;;;;8.63;100.00;100951.66;2616136;36;20031;-61
2022/12/28 05:07:31;;;;;;;18.38;11.82;;;;;;;8.62;100.00;100956.19;2616382;36;20039;-61
2022/12/28 05:09:59;;;;;;;17.43;11.63;;;;;;;8.53;100.00;100956.91;2616264;36;20034;-62
2022/12/28 05:12:27;;;;;;;16.40;11.27;;;;;;;8.62;100.00;100952.66;2615854;31;20046;-61
2022/12/28 05:14:56;;;;;;;19.30;11.85;;;;;;;8.66;100.00;100951.44;2616233;36;20589;-61
2022/12/28 05:17:24;;;;;;;19.50;10.98;;;;;;;8.73;100.00;100947.28;2615557;36;20022;-61
2022/12/28 05:19:55;;;;;;;22.17;12.38;;;;;;;8.69;100.00;100953.88;2615304;36;20046;-60
2022/12/28 05:22:23;;;;;;;16.33;10.27;;;;;;;8.67;100.00;100951.31;2615802;31;20647;-60
2022/12/28 05:24:52;;;;;;;21.55;11.52;;;;;;;8.84;100.00;100941.06;2615516;36;20143;-62
2022/12/28 05:27:20;;;;;;;16.02;11.30;;;;;;;8.74;100.00;100941.78;2615173;36;20041;-62
2022/12/28 05:29:48;;;;;;;18.73;11.80;;;;;;;8.71;100.00;100942.03;2615422;36;20071;-60
2022/12/28 05:32:17;;;;;;;19.63;12.40;;;;;;;8.76;100.00;100957.78;2615488;36;20057;-61
2022/12/28 05:34:45;;;;;;;18.20;11.27;;;;;;;8.84;100.00;100941.06;2615717;36;20408;-61
2022/12/28 05:37:17;;;;;;;15.73;10.30;;;;;;;8.91;100.00;100942.28;2615244;36;20035;-61
2022/12/28 05:39:45;;;;;;;18.48;11.82;;;;;;;8.85;100.00;100932.03;2615357;36;20042;-61
2022/12/28 05:42:13;;;;;;;18.88;11.98;;;;;;;8.86;100.00;100944.47;2616573;31;20049;-61
2022/12/28 05:44:41;;;;;;;21.92;11.85;;;;;;;8.89;100.00;100936.16;2615449;36;20563;-61
2022/12/28 05:47:10;;;;;;;17.30;11.90;;;;;;;8.94;100.00;100929.47;2614964;36;20050;-61
2022/12/28 05:49:38;;;;;;;19.83;12.43;;;;;;;8.92;100.00;100935.91;2614912;36;20038;-61
2022/12/28 05:52:07;;;;;;;18.85;10.23;;;;;;;9.00;100.00;100936.16;2614644;36;20034;-61
2022/12/28 05:54:40;;;;;;;17.47;11.10;;;;;;;9.08;100.00;100939.09;2617405;54;20037;-61
2022/12/28 05:57:09;;;;;;;15.38;10.50;;;;;;;9.07;100.00;100944.59;2616157;36;20303;-62
2022/12/28 05:59:37;;;;;;;18.42;11.13;;;;;;;9.14;100.00;100939.56;2616395;31;20030;-63
2022/12/28 06:02:05;;;;;;;15.50;10.43;;;;;;;9.11;100.00;100946.03;2616293;36;20439;-62
2022/12/28 06:04:33;;;;;;;16.98;10.57;;;;;;;9.08;100.00;100941.78;2615663;36;20053;-62
2022/12/28 06:07:02;;;;;;;16.02;10.20;;;;;;;9.10;100.00;100939.81;2615440;36;20037;-61
2022/12/28 06:09:31;;;;;;;15.02;9.82;;;;;;;9.07;100.00;100942.75;2615132;36;20041;-62
2022/12/28 06:12:03;;;;;;;11.98;8.80;;;;;;;9.22;100.00;100943.34;2615926;36;20030;-63
2022/12/28 06:14:31;;;;;;;14.90;9.18;;;;;;;9.15;100.00;100939.44;2615260;36;20030;-63
2022/12/28 06:17:00;;;;;;;11.75;8.40;;;;;;;9.27;100.00;100933.03;2615451;36;20571;-62
2022/12/28 06:19:28;;;;;;;14.32;8.75;;;;;;;9.22;100.00;100939.81;2616234;31;20045;-62
2022/12/28 06:21:56;;;;;;;16.35;9.30;;;;;;;9.21;100.00;100935.41;2615269;36;20022;-63
2022/12/28 06:24:25;;;;;;;15.32;8.50;;;;;;;9.28;100.00;100934.75;2615727;31;20045;-61
2022/12/28 06:26:53;;;;;;;14.05;8.10;;;;;;;9.25;100.00;100932.34;2616205;36;20030;-61
2022/12/28 06:29:26;;;;;;;15.27;8.30;;;;;;;9.21;100.00;100932.72;2617070;36;20023;-61
2022/12/28 06:31:59;;;;;;;13.98;8.45;;;;;;;9.22;100.00;100931.75;2614976;54;20122;-62
2022/12/28 06:34:29;;;;;;;10.85;8.10;;;;;;;9.34;100.00;100928.03;2615554;36;20443;-61
2022/12/28 06:36:59;;;;;;;13.15;8.10;;;;;;;9.38;100.00;100917.88;2614513;36;22052;-61
2022/12/28 06:39:28;;;;;;;13.23;8.77;;;;;;;9.34;100.00;100925.34;2615288;36;20030;-62
2022/12/28 06:41:56;;;;;;;12.88;7.65;;;;;;;9.40;100.00;100922.16;2616605;31;20501;-61
2022/12/28 06:44:27;;;;;;;12.30;8.60;;;;;;;9.43;100.00;100911.16;2615516;31;20030;-61
2022/12/28 06:46:55;;;;;;;11.88;8.25;;;;;;;9.52;100.00;100906.84;2614882;36;20030;-62
2022/12/28 06:49:24;;;;;;;10.82;8.02;;;;;;;9.47;100.00;100907.22;2615460;36;20039;-61
2022/12/28 06:51:52;;;;;;;9.60;7.15;;;;;;;9.57;100.00;100901.09;2615513;36;20034;-61
2022/12/28 06:54:20;;;;;;;9.95;7.47;;;;;;;9.58;100.00;100908.16;2615350;31;20530;-61
2022/12/28 06:56:49;;;;;;;9.68;7.05;;;;;;;9.67;100.00;100902.00;2615152;36;20038;-61
2022/12/28 06:59:17;;;;;;;9.90;6.88;;;;;;;9.69;100.00;100910.81;2615836;36;20057;-62
2022/12/28 07:01:48;;;;;;;9.98;7.63;;;;;;;9.60;100.00;100890.09;2614834;36;20037;-60
2022/12/28 07:04:16;;;;;;;7.68;5.97;;;;;;;9.62;100.00;100898.88;2615936;36;20431;-60
2022/12/28 07:06:46;;;;;;;8.27;6.30;;;;;;;9.67;100.00;100902.00;2615179;36;20125;-62
2022/12/28 07:09:16;;;;;;;9.70;6.60;;;;;;;9.66;100.00;100911.09;2615100;36;20547;-61
2022/12/28 07:11:45;;;;;;;9.13;6.70;;;;;;;9.58;100.00;100902.78;2615404;36;20459;-62
2022/12/28 07:14:13;;;;;;;8.50;6.53;;;;;;;9.64;100.00;100907.66;2615735;36;20062;-61
2022/12/28 07:16:42;;;;;;;8.70;6.35;;;;;;;9.64;100.00;100903.16;2614996;36;20053;-62
2022/12/28 07:19:13;;;;;;;9.57;5.97;;;;;;;9.62;100.00;100904.25;2614246;36;20035;-60
2022/12/28 07:21:41;;;;;;;8.13;6.15;;;;;;;9.55;100.00;100903.06;2614804;31;20609;-61
2022/12/28 07:24:10;;;;;;;9.07;6.43;;;;;;;9.60;100.00;100914.28;2615296;31;20412;-61
2022/12/28 07:26:40;;;;;;;11.00;6.70;;;;;;;9.64;100.00;100916.59;2615431;36;20443;-62
2022/12/28 07:29:10;;;;;;;11.15;6.28;;;;;;;9.65;100.00;100923.66;2615997;36;20034;-61
2022/12/28 07:31:40;;;;;;;10.07;6.50;;;;;;;9.61;100.00;100927.59;2614894;36;20435;-61
2022/12/28 07:34:09;;;;;;;8.70;6.00;;;;;;;9.55;100.00;100908.44;2615009;36;20034;-61
2022/12/28 07:36:40;;;;;;;8.37;5.97;;;;;;;9.65;100.00;100920.13;2614946;31;20034;-61
2022/12/28 07:39:09;;;;;;;7.35;5.82;;;;;;;9.63;100.00;100911.34;2614117;36;20335;-61
2022/12/28 07:41:37;;;;;;;9.45;6.15;;;;;;;9.75;100.00;100904.91;2615722;36;20042;-61
2022/12/28 07:44:06;;;;;;;12.48;6.53;;;;;;;9.79;100.00;100921.63;2614605;36;20073;-61
2022/12/28 07:46:36;;;;;;;11.32;6.13;;;;;;;9.77;100.00;100911.00;2614759;36;20570;-61
2022/12/28 07:49:05;;;;;;;7.50;5.22;;;;;;;9.70;100.00;100919.72;2614968;31;20436;-62
2022/12/28 07:51:35;;;;;;;8.57;6.47;;;;;;;9.69;100.00;100912.63;2615309;36;20057;-62
2022/12/28 07:54:07;;;;;;;8.80;5.93;;;;;;;9.73;100.00;100909.59;2615129;36;20034;-62
2022/12/28 07:56:36;;;;;;;9.85;6.07;;;;;;;9.68;100.00;100914.47;2614735;36;20030;-62
2022/12/28 07:59:07;;;;;;;9.82;6.43;;;;;;;9.68;100.00;100914.47;2615445;36;20041;-62
2022/12/28 08:01:37;;;;;;;8.80;5.85;;;;;;;9.71;100.00;100914.22;2614748;36;20041;-62
2022/12/28 08:04:08;;;;;;;9.15;6.10;;;;;;;9.76;100.00;100905.75;2615258;36;20026;-62
2022/12/28 08:06:38;;;;;;;12.35;5.90;;;;;;;9.65;100.00;100920.13;2615661;36;20035;-61
2022/12/28 08:09:11;;;;;;;8.73;5.60;;;;;;;9.76;100.00;100914.69;2615435;36;20035;-62
2022/12/28 08:11:41;;;;;;;9.93;6.05;;;;;;;9.69;100.00;100916.19;2615728;36;20321;-61
2022/12/28 08:14:11;;;;;;;9.15;6.30;;;;;;;9.70;100.00;100904.47;2614780;36;20547;-62
2022/12/28 08:16:41;;;;;;;10.68;6.53;;;;;;;9.78;100.00;100907.34;2615418;36;20039;-61
2022/12/28 08:19:11;;;;;;;12.43;6.35;;;;;;;9.81;100.00;100900.88;2614881;36;20038;-61
2022/12/28 08:21:41;;;;;;;11.18;7.13;;;;;;;9.83;100.00;100906.94;2614866;36;20038;-61
2022/12/28 08:24:16;;;;;;;10.88;6.95;;;;;;;9.95;100.00;100918.50;2614465;31;20035;-62
2022/12/28 08:26:45;;;;;;;11.32;6.60;;;;;;;9.85;100.00;100898.75;2615211;36;20026;-62
2022/12/28 08:29:16;;;;;;;10.23;6.35;;;;;;;9.87;100.00;100907.56;2615626;31;20523;-61
2022/12/28 08:31:47;;;;;;;10.07;6.28;;;;;;;9.96;100.00;100902.22;2616638;36;20419;-61
2022/12/28 08:34:17;;;;;;;7.63;5.63;;;;;;;9.86;100.00;100911.22;2614579;36;20038;-61
2022/12/28 08:36:45;;;;;;;7.60;5.53;;;;;;;9.95;100.00;100910.44;2615286;36;20678;-61
2022/12/28 08:39:16;;;;;;;7.87;5.60;;;;;;;9.90;100.00;100913.53;2616699;36;20502;-60
2022/12/28 08:41:45;;;;;;;11.70;6.15;;;;;;;10.07;100.00;100909.41;2615744;36;20038;-61
2022/12/28 08:44:13;;;;;;;11.73;5.57;;;;;;;9.94;100.00;100914.13;2615154;36;20035;-62
2022/12/28 08:46:41;;;;;;;8.60;5.25;;;;;;;9.89;100.00;100905.59;2615317;36;20138;-60
2022/12/28 08:49:10;;;;;;;9.88;5.20;;;;;;;9.94;100.00;100908.75;2615840;36;20061;-62
2022/12/28 08:51:41;;;;;;;7.60;5.18;;;;;;;9.92;100.00;100913.38;2615722;36;20081;-61
2022/12/28 08:54:11;;;;;;;8.10;4.72;;;;;;;9.96;100.00;100901.38;2616052;36;20081;-62
2022/12/28 08:56:44;;;;;;;10.23;5.20;;;;;;;9.95;100.00;100905.94;2616158;36;20030;-61
2022/12/28 08:59:15;;;;;;;7.22;5.68;;;;;;;9.93;100.00;100901.66;2615804;36;20030;-60
2022/12/28 09:01:43;;;;;;;8.55;5.70;;;;;;;9.84;100.00;100894.38;2615726;36;20036;-61
2022/12/28 09:04:15;;;;;;;8.27;6.18;;;;;;;9.94;100.00;100903.38;2615424;36;20035;-61
2022/12/28 09:06:43;;;;;;;10.57;6.65;;;;;;;9.87;100.00;100903.03;2615070;36;20443;-61
2022/12/28 09:09:15;;;;;;;9.37;7.10;;;;;;;9.89;100.00;100900.22;2616479;36;20030;-61
2022/12/28 09:11:46;;;;;;;10.30;6.88;;;;;;;9.96;100.00;100912.16;2616904;36;20486;-62
2022/12/28 09:14:16;;;;;;;9.80;6.75;;;;;;;10.06;100.00;100913.06;2615555;36;20031;-61
2022/12/28 09:16:44;;;;;;;;;;;;;;;10.02;100.00;100910.78;2615819;36;20037;-61
2022/12/28 09:19:15;;;;;;;12.65;8.65;;;;;;;10.03;100.00;100902.56;2615473;36;19946;-61
2022/12/28 09:21:47;;;;;;;12.75;8.57;;;;;;;9.95;100.00;100902.38;2615448;36;20134;-61
2022/12/28 09:24:16;;;;;;;14.48;8.77;;;;;;;9.97;100.00;100897.72;2615192;36;20026;-60
2022/12/28 09:26:47;;;;;;;22.55;8.77;;;;;;;10.11;100.00;100902.75;2615688;36;20035;-60
2022/12/28 09:29:16;;;;;;;11.25;7.70;;;;;;;10.13;100.00;100899.97;2614605;36;20038;-62
2022/12/28 09:31:44;;;;;;;12.55;7.53;;;;;;;10.11;100.00;100894.69;2615790;36;20034;-62
2022/12/28 09:34:14;;;;;;;12.95;7.70;;;;;;;10.12;100.00;100901.78;2615356;36;20034;-61
2022/12/28 09:36:44;;;;;;;11.90;7.82;;;;;;;10.22;100.00;100898.28;2615310;36;20034;-62
2022/12/28 09:39:16;;;;;;;11.13;7.30;;;;;;;10.16;100.00;100908.59;2615371;36;20555;-62
2022/12/28 09:41:51;;;;;;;14.85;7.63;;;;;;;10.01;100.00;100909.91;2615444;36;20663;-62
2022/12/28 09:44:38;;;;;;;12.50;6.78;;;;;;;10.01;100.00;100899.16;2615483;36;20030;-62
2022/12/28 09:47:16;;;;;;;12.75;7.10;;;;;;;10.05;100.00;100905.13;2614992;36;20034;-62
2022/12/28 09:49:48;;;;;;;12.50;7.38;;;;;;;9.95;100.00;100905.06;2615171;31;20039;-61
2022/12/28 09:52:28;;;;;;;11.57;6.47;;;;;;;10.00;100.00;100908.22;2614543;36;20030;-61
2022/12/28 09:55:07;;;;;;;9.25;5.97;;;;;;;10.04;100.00;100904.28;2614763;31;20038;-61
2022/12/28 09:57:43;;;;;;;8.95;6.18;;;;;;;9.94;100.00;100908.75;2616908;36;20439;-62
2022/12/28 10:00:18;;;;;;;9.52;6.40;;;;;;;9.94;100.00;100893.47;2615675;36;20034;-60
2022/12/28 10:02:51;;;;;;;8.77;6.28;;;;;;;9.92;100.00;100916.06;2615884;31;20586;-62
2022/12/28 10:05:21;;;;;;;9.68;6.47;;;;;;;9.90;100.00;100896.53;2616127;36;20022;-60
2022/12/28 10:07:50;;;;;;;13.15;6.18;;;;;;;9.88;100.00;100904.75;2615929;36;20042;-61
2022/12/28 10:10:20;;;;;;;12.35;6.68;;;;;;;9.92;100.00;100894.56;2615962;36;20031;-61
2022/12/28 10:12:53;;;;;;;10.27;5.90;;;;;;;9.88;100.00;100890.44;2613850;36;20049;-62
2022/12/28 10:15:28;;;;;;;11.43;6.10;;;;;;;10.04;100.00;100890.84;2616203;36;20559;-62
2022/12/28 10:17:57;;;;;;;11.73;6.50;;;;;;;9.98;100.00;100894.03;2615673;36;20049;-61
2022/12/28 10:20:25;;;;;;;8.07;5.40;;;;;;;9.93;100.00;100890.91;2615993;36;20030;-62
2022/12/28 10:22:57;;;;;;;11.27;6.47;;;;;;;9.86;100.00;100890.56;2612932;36;20065;-61
2022/12/28 10:25:27;;;;;;;10.18;6.50;;;;;;;9.90;100.00;100893.84;2614050;36;20034;-62
2022/12/28 10:27:59;;;;;;;8.75;6.38;;;;;;;9.92;100.00;100889.19;2614291;36;20033;-63
2022/12/28 10:30:29;;;;;;;16.23;7.13;;;;;;;9.88;100.00;100893.13;2614871;36;20035;-61
2022/12/28 10:32:58;;;;;;;;;;;;;;;9.86;100.00;100882.50;2613675;36;20045;-62
2022/12/28 10:35:29;;;;;;;8.93;6.85;;;;;;;10.00;100.00;100882.16;2615746;31;19947;-62
2022/12/28 10:38:03;;;;;;;13.70;7.25;;;;;;;10.00;100.00;100875.94;2611342;36;20041;-62
2022/12/28 10:40:35;;;;;;;10.73;7.15;;;;;;;9.95;100.00;100872.78;2614022;31;20026;-62
2022/12/28 10:43:06;;;;;;;15.95;8.40;;;;;;;10.06;100.00;100870.03;2612984;36;20035;-63
2022/12/28 10:45:38;;;;;;;14.02;8.07;;;;;;;9.94;100.00;100871.94;2613315;36;20041;-62
2022/12/28 10:48:14;;;;;;;15.32;9.10;;;;;;;9.99;100.00;100868.84;2613992;36;20034;-61
2022/12/28 10:50:47;;;;;;;16.17;9.77;;;;;;;9.85;100.00;100867.38;2612878;36;20062;-62
2022/12/28 10:53:24;;;;;;;16.05;9.75;;;;;;;9.87;100.00;100864.56;2611737;36;20057;-62
2022/12/28 10:56:03;;;;;;;18.48;10.82;;;;;;;9.95;100.00;100864.72;2612903;36;20061;-62
2022/12/28 10:58:37;;;;;;;17.25;9.85;;;;;;;9.91;100.00;100861.47;2613369;31;20034;-62
2022/12/28 11:01:07;;;;;;;18.27;10.70;;;;;;;9.95;100.00;100846.78;2614851;36;20027;-63
2022/12/28 11:03:38;;;;;;;17.83;9.55;;;;;;;9.89;100.00;100851.81;2614130;36;20053;-62
2022/12/28 11:06:11;;;;;;;15.85;9.55;;;;;;;10.06;100.00;100856.59;2613880;36;20056;-63
2022/12/28 11:08:41;;;;;;;17.10;10.15;;;;;;;9.96;100.00;100848.47;2614315;36;20034;-61
2022/12/28 11:11:19;;;;;;;17.05;9.85;;;;;;;9.91;100.00;100855.22;2614542;36;20575;-62
2022/12/28 11:13:53;;;;;;;13.38;8.82;;;;;;;9.85;100.00;100842.31;2614145;36;20037;-61
2022/12/28 11:16:22;;;;;;;14.63;9.82;;;;;;;10.07;100.00;100839.47;2613906;36;20042;-61
2022/12/28 11:18:51;;;;;;;14.02;8.93;;;;;;;10.18;100.00;100838.53;2615385;31;20533;-63
2022/12/28 11:21:22;;;;;;;13.48;8.65;;;;;;;10.05;100.00;100825.31;2614742;36;20041;-61
2022/12/28 11:23:53;;;;;;;13.25;8.00;;;;;;;10.03;100.00;100827.28;2615145;31;20030;-62
2022/12/28 11:26:22;;;;;;;14.73;7.70;;;;;;;10.12;100.00;100820.25;2614689;36;20038;-62
2022/12/28 11:28:53;;;;;;;;;;;;;;;10.15;100.00;100819.97;2614742;36;20031;-64
2022/12/28 11:31:27;;;;;;;11.07;7.03;;;;;;;10.14;100.00;100820.97;2612850;36;19943;-62
2022/12/28 11:34:01;;;;;;;11.20;7.80;;;;;;;10.04;100.00;100818.25;2614233;36;20034;-61
2022/12/28 11:36:32;;;;;;;10.63;6.80;;;;;;;9.99;100.00;100807.00;2612829;36;20525;-60
2022/12/28 11:39:20;;;;;;;10.68;7.20;;;;;;;10.10;100.00;100806.06;2612184;31;20122;-61
2022/12/28 11:41:51;;;;;;;11.17;6.13;;;;;;;9.95;100.00;100805.56;2609632;31;20038;-61
2022/12/28 11:44:47;;;;;;;10.90;6.28;;;;;;;10.05;100.00;100793.03;2612985;36;20042;-60
2022/12/28 11:47:24;;;;;;;9.23;5.82;;;;;;;10.00;100.00;100806.03;2614866;36;20061;-61
2022/12/28 11:49:53;;;;;;;10.93;5.85;;;;;;;9.97;100.00;100796.41;2615316;36;20035;-60
2022/12/28 11:52:46;;;;;;;9.33;5.37;;;;;;;9.87;100.00;100789.28;2611913;36;20034;-60
2022/12/28 11:55:49;;;;;;;8.55;5.72;;;;;;;10.00;100.00;100789.91;2615091;36;20122;-60
2022/12/28 11:58:44;;;;;;;8.23;5.50;;;;;;;10.09;100.00;100786.41;2614889;36;20045;-62
2022/12/28 12:01:48;;;;;;;10.23;5.38;;;;;;;9.91;100.00;100780.81;2613491;36;20123;-60
2022/12/28 12:04:20;;;;;;;6.72;4.85;;;;;;;9.96;100.00;100783.94;2614412;36;20034;-61
2022/12/28 12:07:16;;;;;;;9.55;5.30;;;;;;;9.99;100.00;100770.22;2614740;36;20559;-60